createdAt,value
2022-11-12T00:01:28.919Z,12.00
2022-11-12T00:04:14.734Z,11.60
2022-11-12T00:07:01.089Z,11.43
2022-11-12T00:09:47.058Z,11.10
2022-11-12T00:12:33.008Z,11.00
2022-11-12T00:15:19.281Z,11.47
2022-11-12T00:18:05.333Z,11.17
2022-11-12T00:20:51.166Z,11.43
2022-11-12T00:23:37.080Z,10.80
2022-11-12T00:26:23.063Z,11.20
2022-11-12T00:29:09.035Z,10.80
2022-11-12T00:31:55.050Z,12.97
2022-11-12T00:34:40.995Z,12.90
2022-11-12T00:37:27.049Z,11.93
2022-11-12T00:40:13.095Z,10.97
2022-11-12T00:42:58.908Z,11.40
2022-11-12T00:45:44.785Z,10.73
2022-11-12T00:48:30.602Z,11.03
2022-11-12T00:51:16.554Z,10.97
2022-11-12T00:54:02.536Z,10.70
2022-11-12T00:56:48.849Z,10.00
2022-11-12T00:59:34.499Z,10.23
2022-11-12T01:02:20.506Z,10.20
2022-11-12T01:05:06.317Z,11.40
2022-11-12T01:07:56.002Z,11.67
2022-11-12T01:10:41.978Z,11.60
2022-11-12T01:13:27.791Z,12.67
2022-11-12T01:16:22.571Z,11.97
2022-11-12T01:19:11.928Z,9.87
2022-11-12T01:21:57.560Z,11.37
2022-11-12T01:24:43.330Z,11.67
2022-11-12T01:27:29.157Z,11.13
2022-11-12T01:30:15.140Z,11.57
2022-11-12T01:33:00.923Z,12.40
2022-11-12T01:35:46.795Z,13.07
2022-11-12T01:38:41.115Z,13.80
2022-11-12T01:44:20.052Z,12.53
2022-11-12T01:47:20.791Z,12.97
2022-11-12T01:50:21.486Z,12.27
2022-11-12T01:53:12.534Z,12.07
2022-11-12T01:55:59.733Z,11.77
2022-11-12T01:58:47.473Z,11.10
2022-11-12T02:01:35.012Z,12.03
2022-11-12T02:04:21.605Z,11.20
2022-11-12T02:07:08.620Z,11.37
2022-11-12T02:09:55.421Z,11.47
2022-11-12T02:13:01.046Z,11.37
2022-11-12T02:15:46.796Z,11.57
2022-11-12T02:18:32.866Z,11.13
2022-11-12T02:21:20.810Z,11.77
2022-11-12T02:24:26.304Z,11.80
2022-11-12T02:27:12.842Z,11.53
2022-11-12T02:29:58.765Z,11.43
2022-11-12T02:32:44.754Z,10.60
2022-11-12T02:35:31.082Z,11.37
2022-11-12T02:38:17.131Z,10.93
2022-11-12T02:41:03.078Z,11.60
2022-11-12T02:43:49.420Z,11.43
2022-11-12T02:46:35.225Z,11.00
2022-11-12T02:49:21.134Z,11.60
2022-11-12T02:52:07.279Z,11.60
2022-11-12T02:54:53.210Z,11.57
2022-11-12T02:57:39.753Z,11.73
2022-11-12T03:00:26.512Z,12.27
2022-11-12T03:03:21.650Z,11.40
2022-11-12T03:06:08.120Z,11.60
2022-11-12T03:08:54.023Z,11.27
2022-11-12T03:11:40.217Z,11.93
2022-11-12T03:14:26.144Z,11.73
2022-11-12T03:17:12.007Z,12.33
2022-11-12T03:19:57.931Z,12.40
2022-11-12T03:22:55.110Z,11.40
2022-11-12T03:25:41.062Z,11.43
2022-11-12T03:28:27.118Z,12.07
2022-11-12T03:31:13.384Z,13.00
2022-11-12T03:33:59.550Z,12.50
2022-11-12T03:36:45.121Z,13.70
2022-11-12T03:39:31.240Z,13.67
2022-11-12T03:42:17.253Z,13.63
2022-11-12T03:45:04.197Z,12.93
2022-11-12T03:47:53.067Z,11.03
2022-11-12T03:50:39.025Z,11.83
2022-11-12T03:53:24.913Z,11.63
2022-11-12T03:56:11.107Z,11.60
2022-11-12T03:58:57.103Z,12.27
2022-11-12T04:01:42.958Z,13.03
2022-11-12T04:04:48.890Z,14.63
2022-11-12T04:07:53.224Z,13.33
2022-11-12T04:10:39.086Z,11.63
2022-11-12T04:13:28.256Z,13.57
2022-11-12T04:16:35.604Z,12.90
2022-11-12T04:19:41.918Z,12.80
2022-11-12T04:22:27.644Z,11.60
2022-11-12T04:25:51.987Z,12.37
2022-11-12T04:28:37.653Z,12.30
2022-11-12T04:31:23.635Z,12.67
2022-11-12T04:34:28.281Z,11.27
2022-11-12T04:37:14.223Z,11.67
2022-11-12T04:40:20.720Z,11.17
2022-11-12T04:43:28.020Z,11.10
2022-11-12T04:46:13.973Z,11.77
2022-11-12T04:49:00.018Z,11.73
2022-11-12T04:52:04.502Z,11.80
2022-11-12T04:54:51.238Z,11.37
2022-11-12T04:57:37.767Z,10.73
2022-11-12T05:00:24.207Z,11.03
2022-11-12T05:03:09.979Z,12.20
2022-11-12T05:06:05.371Z,10.90
2022-11-12T05:08:51.262Z,12.03
2022-11-12T05:11:36.969Z,12.90
2022-11-12T05:14:23.609Z,12.00
2022-11-12T05:17:09.530Z,12.50
2022-11-12T05:19:55.252Z,12.60
2022-11-12T05:22:47.856Z,12.27
2022-11-12T05:25:36.604Z,12.17
2022-11-12T05:28:22.641Z,13.10
2022-11-12T05:31:09.129Z,13.30
2022-11-12T05:33:55.166Z,15.27
2022-11-12T05:36:41.228Z,16.13
2022-11-12T05:39:27.974Z,14.77
2022-11-12T05:42:14.535Z,14.93
2022-11-12T05:45:00.440Z,15.93
2022-11-12T05:47:46.248Z,18.03
2022-11-12T05:50:39.738Z,18.90
2022-11-12T05:53:31.077Z,19.90
2022-11-12T05:56:17.070Z,28.07
2022-11-12T05:59:06.336Z,20.13
2022-11-12T06:01:52.137Z,32.73
2022-11-12T06:04:37.827Z,27.77
2022-11-12T06:07:23.720Z,27.87
2022-11-12T06:10:09.797Z,22.67
2022-11-12T06:12:55.942Z,25.57
2022-11-12T06:15:42.178Z,40.23
2022-11-12T06:18:28.429Z,34.43
2022-11-12T06:21:20.217Z,22.73
2022-11-12T06:24:05.942Z,26.03
2022-11-12T06:26:51.753Z,30.07
2022-11-12T06:29:38.651Z,32.27
2022-11-12T06:32:25.127Z,30.33
2022-11-12T06:35:11.076Z,46.80
2022-11-12T06:37:56.885Z,27.60
2022-11-12T06:40:42.937Z,32.30
2022-11-12T06:43:31.091Z,33.10
2022-11-12T06:46:17.584Z,37.27
2022-11-12T06:49:03.619Z,27.23
2022-11-12T06:51:51.128Z,39.97
2022-11-12T06:54:36.847Z,42.60
2022-11-12T06:57:22.857Z,33.07
2022-11-12T07:00:11.751Z,25.87
2022-11-12T07:02:57.701Z,26.57
2022-11-12T07:05:43.626Z,25.93
2022-11-12T07:08:29.762Z,24.03
2022-11-12T07:11:17.430Z,23.20
2022-11-12T07:14:06.465Z,22.20
2022-11-12T07:16:51.891Z,24.97
2022-11-12T07:19:37.773Z,19.30
2022-11-12T07:22:23.895Z,23.87
2022-11-12T07:25:09.710Z,16.30
2022-11-12T07:27:55.596Z,19.53
2022-11-12T07:30:41.326Z,20.43
2022-11-12T07:33:28.370Z,14.70
2022-11-12T07:36:17.477Z,12.07
2022-11-12T07:39:03.472Z,13.30
2022-11-12T07:41:49.215Z,13.80
2022-11-12T07:44:35.194Z,11.47
2022-11-12T07:47:21.075Z,10.93
2022-11-12T07:50:07.094Z,12.07
2022-11-12T07:52:53.195Z,13.83
2022-11-12T07:55:39.054Z,11.17
2022-11-12T07:58:26.005Z,12.33
2022-11-12T08:01:33.673Z,13.30
2022-11-12T08:04:19.557Z,12.33
2022-11-12T08:07:05.431Z,15.90
2022-11-12T08:09:51.124Z,10.70
2022-11-12T08:12:37.104Z,9.37
2022-11-12T08:15:23.010Z,13.13
2022-11-12T08:18:08.843Z,12.43
2022-11-12T08:21:03.528Z,9.77
2022-11-12T08:23:49.419Z,11.30
2022-11-12T08:26:35.277Z,10.80
2022-11-12T08:29:23.193Z,9.90
2022-11-12T08:32:09.220Z,13.30
2022-11-12T08:34:56.046Z,10.00
2022-11-12T08:37:42.151Z,18.40
2022-11-12T08:40:29.734Z,9.60
2022-11-12T08:43:15.651Z,10.70
2022-11-12T08:46:02.611Z,13.47
2022-11-12T08:48:48.528Z,12.23
2022-11-12T08:51:34.693Z,10.20
2022-11-12T08:54:21.014Z,9.53
2022-11-12T08:57:06.874Z,8.60
2022-11-12T08:59:52.671Z,9.20
2022-11-12T09:02:39.075Z,9.97
2022-11-12T09:05:24.813Z,8.53
2022-11-12T09:08:16.462Z,8.80
2022-11-12T09:11:02.780Z,7.27
2022-11-12T09:13:49.509Z,7.80
2022-11-12T09:16:35.046Z,8.20
2022-11-12T09:19:20.867Z,7.63
2022-11-12T09:22:06.931Z,7.87
2022-11-12T09:24:52.460Z,8.27
2022-11-12T09:27:39.856Z,7.70
2022-11-12T09:30:28.068Z,7.73
2022-11-12T09:33:15.435Z,8.20
2022-11-12T09:36:05.259Z,7.60
2022-11-12T09:38:51.078Z,7.20
2022-11-12T09:41:39.110Z,10.57
2022-11-12T09:44:25.154Z,12.40
2022-11-12T09:47:38.751Z,8.77
2022-11-12T09:50:36.506Z,9.00
2022-11-12T09:53:26.459Z,8.37
2022-11-12T09:56:14.902Z,22.20
2022-11-12T09:59:00.790Z,11.97
2022-11-12T10:01:53.529Z,9.67
2022-11-12T10:04:54.619Z,9.87
2022-11-12T10:07:49.929Z,9.20
2022-11-12T10:10:54.386Z,14.50
2022-11-12T10:14:11.973Z,9.90
2022-11-12T10:17:19.777Z,12.60
2022-11-12T10:20:25.856Z,8.43
2022-11-12T10:23:26.182Z,8.87
2022-11-12T10:26:16.918Z,11.17
2022-11-12T10:29:11.629Z,8.60
2022-11-12T10:31:57.541Z,8.57
2022-11-12T10:34:43.546Z,9.03
2022-11-12T10:37:52.638Z,9.87
2022-11-12T10:40:41.003Z,10.73
2022-11-12T10:43:26.735Z,11.37
2022-11-12T10:46:18.922Z,12.00
2022-11-12T10:49:05.733Z,11.90
2022-11-12T10:51:56.962Z,11.83
2022-11-12T10:54:43.227Z,12.43
2022-11-12T10:57:29.448Z,11.73
2022-11-12T11:00:18.275Z,11.90
2022-11-12T11:03:16.330Z,13.03
2022-11-12T11:06:22.220Z,12.37
2022-11-12T11:09:16.123Z,12.57
2022-11-12T11:12:02.076Z,13.50
2022-11-12T11:15:19.388Z,14.67
2022-11-12T11:18:05.358Z,15.13
2022-11-12T11:21:20.263Z,13.73
2022-11-12T11:24:33.717Z,14.63
2022-11-12T11:27:40.236Z,14.13
2022-11-12T11:30:26.218Z,14.23
2022-11-12T11:33:11.811Z,13.67
2022-11-12T11:36:22.475Z,14.97
2022-11-12T11:39:45.655Z,14.20
2022-11-12T11:43:02.359Z,14.40
2022-11-12T11:45:53.854Z,14.33
2022-11-12T11:48:50.180Z,14.47
2022-11-12T11:51:54.292Z,14.93
2022-11-12T11:54:49.032Z,14.73
2022-11-12T11:58:07.210Z,15.57
2022-11-12T12:01:23.672Z,14.83
2022-11-12T12:04:15.460Z,13.83
2022-11-12T12:07:20.349Z,13.97
2022-11-12T12:10:19.999Z,13.93
2022-11-12T12:13:35.420Z,14.63
2022-11-12T12:16:48.468Z,13.57
2022-11-12T12:20:00.975Z,12.80
2022-11-12T12:22:51.901Z,13.73
2022-11-12T12:25:41.698Z,13.00
2022-11-12T12:28:54.487Z,12.97
2022-11-12T12:31:51.706Z,12.73
2022-11-12T12:34:46.174Z,12.53
2022-11-12T12:37:40.932Z,12.97
2022-11-12T12:40:41.430Z,13.37
2022-11-12T12:43:36.628Z,12.17
2022-11-12T12:46:25.758Z,11.80
2022-11-12T12:49:29.621Z,12.10
2022-11-12T12:52:15.671Z,11.87
2022-11-12T12:55:01.573Z,12.93
2022-11-12T12:57:47.662Z,12.10
2022-11-12T13:00:40.977Z,12.20
2022-11-12T13:03:44.774Z,11.60
2022-11-12T13:06:46.172Z,12.13
2022-11-12T13:09:33.403Z,11.30
2022-11-12T13:12:19.205Z,10.80
2022-11-12T13:15:16.233Z,11.83
2022-11-12T13:18:02.109Z,15.23
2022-11-12T13:21:10.441Z,11.20
2022-11-12T13:24:07.444Z,11.37
2022-11-12T13:26:56.633Z,12.20
2022-11-12T13:29:44.067Z,11.47
2022-11-12T13:32:32.210Z,13.13
2022-11-12T13:35:23.854Z,13.40
2022-11-12T13:38:12.726Z,12.77
2022-11-12T13:41:17.964Z,12.67
2022-11-12T13:44:09.774Z,11.60
2022-11-12T13:46:56.417Z,12.47
2022-11-12T13:49:45.708Z,13.73
2022-11-12T13:52:33.241Z,12.17
2022-11-12T13:55:21.684Z,13.03
2022-11-12T13:58:26.295Z,23.47
2022-11-12T14:01:13.088Z,22.70
2022-11-12T14:03:58.910Z,13.53
2022-11-12T14:06:48.964Z,12.17
2022-11-12T14:10:13.272Z,12.63
2022-11-12T14:13:36.706Z,11.73
2022-11-12T14:16:39.957Z,11.70
2022-11-12T14:20:04.099Z,13.17
2022-11-12T14:22:50.085Z,12.03
2022-11-12T14:25:47.265Z,11.70
2022-11-12T14:28:37.472Z,13.80
2022-11-12T14:31:26.467Z,13.03
2022-11-12T14:34:27.715Z,12.80
2022-11-12T14:37:35.014Z,12.50
2022-11-12T14:40:25.257Z,12.20
2022-11-12T14:43:50.159Z,12.23
2022-11-12T14:46:47.995Z,13.50
2022-11-12T14:49:44.932Z,14.80
2022-11-12T14:52:40.841Z,15.40
2022-11-12T14:55:30.696Z,15.70
2022-11-12T14:58:18.375Z,15.10
2022-11-12T15:04:45.340Z,16.20
2022-11-12T15:07:34.716Z,16.83
2022-11-12T15:10:37.642Z,17.20
2022-11-12T15:13:26.866Z,20.13
2022-11-12T15:16:19.418Z,18.07
2022-11-12T15:19:13.876Z,19.20
2022-11-12T15:22:01.658Z,21.40
2022-11-12T15:24:49.416Z,20.10
2022-11-12T15:27:41.646Z,21.57
2022-11-12T15:30:30.610Z,24.63
2022-11-12T15:33:21.086Z,22.13
2022-11-12T15:36:19.889Z,22.97
2022-11-12T15:39:13.585Z,20.87
2022-11-12T15:42:02.302Z,21.53
2022-11-12T15:44:48.736Z,23.97
2022-11-12T15:47:34.393Z,22.23
2022-11-12T15:50:24.488Z,22.17
2022-11-12T15:53:10.521Z,20.47
2022-11-12T15:55:56.774Z,24.10
2022-11-12T15:58:43.072Z,26.03
2022-11-12T16:01:29.038Z,22.43
2022-11-12T16:04:14.894Z,26.03
2022-11-12T16:07:00.826Z,25.23
2022-11-12T16:09:46.543Z,28.23
2022-11-12T16:12:32.539Z,26.07
2022-11-12T16:15:20.583Z,25.10
2022-11-12T16:18:09.837Z,26.80
2022-11-12T16:20:55.775Z,21.87
2022-11-12T16:23:41.607Z,22.47
2022-11-12T16:26:32.113Z,22.77
2022-11-12T16:29:18.182Z,22.63
2022-11-12T16:32:04.528Z,25.47
2022-11-12T16:34:50.334Z,24.80
2022-11-12T16:37:38.330Z,25.53
2022-11-12T16:40:26.768Z,22.23
2022-11-12T16:43:12.486Z,20.87
2022-11-12T16:45:58.866Z,20.43
2022-11-12T16:48:44.735Z,19.40
2022-11-12T16:51:30.650Z,19.37
2022-11-12T16:54:16.462Z,21.50
2022-11-12T16:57:02.246Z,21.33
2022-11-12T16:59:48.035Z,21.73
2022-11-12T17:02:36.914Z,20.87
2022-11-12T17:05:26.448Z,18.47
2022-11-12T17:08:14.415Z,19.30
2022-11-12T17:11:07.151Z,19.53
2022-11-12T17:13:52.838Z,24.93
2022-11-12T17:16:38.917Z,27.40
2022-11-12T17:19:25.337Z,23.67
2022-11-12T17:22:11.269Z,22.17
2022-11-12T17:24:57.116Z,25.03
2022-11-12T17:27:42.937Z,22.43
2022-11-12T17:30:29.060Z,22.53
2022-11-12T17:33:14.981Z,22.10
2022-11-12T17:36:02.810Z,25.40
2022-11-12T17:38:48.577Z,21.87
2022-11-12T17:41:34.271Z,23.40
2022-11-12T17:44:20.431Z,26.63
2022-11-12T17:47:06.371Z,25.57
2022-11-12T17:49:51.955Z,22.07
2022-11-12T17:52:37.930Z,22.13
2022-11-12T17:55:23.802Z,21.70
2022-11-12T17:58:09.869Z,23.37
2022-11-12T18:00:56.104Z,20.20
2022-11-12T18:03:44.303Z,19.67
2022-11-12T18:06:32.686Z,23.23
2022-11-12T18:09:18.279Z,19.87
2022-11-12T18:12:04.628Z,21.07
2022-11-12T18:14:50.058Z,20.83
2022-11-12T18:17:36.471Z,21.43
2022-11-12T18:20:22.550Z,18.23
2022-11-12T18:23:09.039Z,18.40
2022-11-12T18:25:55.078Z,18.80
2022-11-12T18:28:41.853Z,21.27
2022-11-12T18:31:28.809Z,20.50
2022-11-12T18:34:15.363Z,19.50
2022-11-12T18:37:01.158Z,20.37
2022-11-12T18:39:47.322Z,20.10
2022-11-12T18:42:33.165Z,18.87
2022-11-12T18:45:19.015Z,24.60
2022-11-12T18:48:05.033Z,21.70
2022-11-12T18:50:51.332Z,21.50
2022-11-12T18:53:38.344Z,23.43
2022-11-12T18:56:24.049Z,23.47
2022-11-12T18:59:11.621Z,21.43
2022-11-12T19:01:58.750Z,21.10
2022-11-12T19:04:45.643Z,24.03
2022-11-12T19:07:31.762Z,20.17
2022-11-12T19:10:17.367Z,21.63
2022-11-12T19:13:04.969Z,21.47
2022-11-12T19:15:51.006Z,25.33
2022-11-12T19:18:37.790Z,24.77
2022-11-12T19:21:25.431Z,21.70
2022-11-12T19:24:11.318Z,21.77
2022-11-12T19:26:57.492Z,29.70
2022-11-12T19:29:43.471Z,27.70
2022-11-12T19:32:29.287Z,27.20
2022-11-12T19:35:15.143Z,26.13
2022-11-12T19:38:01.087Z,24.07
2022-11-12T19:40:47.193Z,26.60
2022-11-12T19:43:33.825Z,28.13
2022-11-12T19:46:20.067Z,25.00
2022-11-12T19:49:05.715Z,24.43
2022-11-12T19:51:51.580Z,26.20
2022-11-12T19:54:37.356Z,32.40
2022-11-12T19:57:23.328Z,25.67
2022-11-12T20:00:10.743Z,24.57
2022-11-12T20:02:56.252Z,22.03
2022-11-12T20:05:42.219Z,22.27
2022-11-12T20:08:28.681Z,28.50
2022-11-12T20:11:16.117Z,25.07
2022-11-12T20:14:02.491Z,33.63
2022-11-12T20:16:50.820Z,28.67
2022-11-12T20:19:36.649Z,24.70
2022-11-12T20:22:22.538Z,27.80
2022-11-12T20:25:09.036Z,26.03
2022-11-12T20:27:55.008Z,27.73
2022-11-12T20:30:41.006Z,27.17
2022-11-12T20:33:27.419Z,26.73
2022-11-12T20:36:20.279Z,28.40
2022-11-12T20:39:06.213Z,28.83
2022-11-12T20:41:51.969Z,29.00
2022-11-12T20:44:37.764Z,24.67
2022-11-12T20:47:26.934Z,22.80
2022-11-12T20:50:12.929Z,24.80
2022-11-12T20:52:58.807Z,24.47
2022-11-12T20:55:44.577Z,21.40
2022-11-12T20:58:30.788Z,22.13
2022-11-12T21:01:18.847Z,21.47
2022-11-12T21:04:04.584Z,23.37
2022-11-12T21:06:51.344Z,24.47
2022-11-12T21:09:37.015Z,35.50
2022-11-12T21:12:22.881Z,22.07
2022-11-12T21:15:09.240Z,29.50
2022-11-12T21:17:54.794Z,23.20
2022-11-12T21:20:40.646Z,20.30
2022-11-12T21:23:30.056Z,23.23
2022-11-12T21:26:21.004Z,20.70
2022-11-12T21:29:07.192Z,22.33
2022-11-12T21:31:53.011Z,19.87
2022-11-12T21:34:39.067Z,18.67
2022-11-12T21:37:24.864Z,28.43
2022-11-12T21:40:11.064Z,20.13
2022-11-12T21:42:56.867Z,20.67
2022-11-12T21:45:47.286Z,19.23
2022-11-12T21:48:33.335Z,22.33
2022-11-12T21:51:21.103Z,22.60
2022-11-12T21:54:07.679Z,20.70
2022-11-12T21:56:53.217Z,27.83
2022-11-12T21:59:39.238Z,28.80
2022-11-12T22:02:25.076Z,26.40
2022-11-12T22:05:11.239Z,27.60
2022-11-12T22:07:57.180Z,26.10
2022-11-12T22:10:43.076Z,22.47
2022-11-12T22:13:29.582Z,27.87
2022-11-12T22:16:24.019Z,30.60
2022-11-12T22:19:11.262Z,24.17
2022-11-12T22:21:57.187Z,22.60
2022-11-12T22:24:42.954Z,23.33
2022-11-12T22:27:31.348Z,22.23
2022-11-12T22:30:17.286Z,21.97
2022-11-12T22:33:03.106Z,24.20
2022-11-12T22:35:49.069Z,20.50
2022-11-12T22:38:36.719Z,21.27
2022-11-12T22:41:30.938Z,31.13
2022-11-12T22:44:16.595Z,29.13
2022-11-12T22:47:02.537Z,30.57
2022-11-12T22:49:48.447Z,21.77
2022-11-12T22:52:34.456Z,23.20
2022-11-12T22:55:20.294Z,17.90
2022-11-12T22:58:06.151Z,21.73
2022-11-12T23:00:52.111Z,21.00
2022-11-12T23:03:38.103Z,20.97
2022-11-12T23:06:25.591Z,22.20
2022-11-12T23:09:16.352Z,21.60
2022-11-12T23:12:01.974Z,18.77
2022-11-12T23:14:47.825Z,18.00
2022-11-12T23:17:33.807Z,19.60
2022-11-12T23:20:19.633Z,19.50
2022-11-12T23:23:05.537Z,17.27
2022-11-12T23:25:51.481Z,20.37
2022-11-12T23:28:38.080Z,18.73
2022-11-12T23:31:27.585Z,19.20
2022-11-12T23:34:13.629Z,23.93
2022-11-12T23:36:59.426Z,17.03
2022-11-12T23:39:45.268Z,17.93
2022-11-12T23:42:31.211Z,17.73
2022-11-12T23:45:17.102Z,18.83
2022-11-12T23:48:03.200Z,16.67
2022-11-12T23:50:50.649Z,16.57
2022-11-12T23:53:37.346Z,18.77
2022-11-12T23:56:23.220Z,16.60
2022-11-12T23:59:08.864Z,19.83
